Terminal Aerodrome Forecast
Issued by NWS

Home | Current Version | Previous Version | Text Only | Print | Product List | Glossary On
Versions: 1 2 3 4 5 6 7 8 9 10 11 12 13 14
841
FTUS42 TJSJ 301138
TAFJMZ
TAF
TJMZ 301138Z 3012/3112 09006KT P6SM FEW035 BKN100 BKN250
     FM301450 VRB10KT P6SM VCSH SCT025 SCT050 SCT100
     FM301800 25010KT P6SM VCTS SCT022CB BKN040 BKN100
     FM302300 06006KT P6SM FEW030 SCT060 SCT120
      AMD NOT SKED=

USA.gov is the U.S. government's official web portal to all federal, state and local government web resources and services.